
<gpx xmlns="http://www.topografix.com/GPX/1/1" xmlns:gpxx="http://www.garmin.com/xmlschemas/GpxExtensions/v3" xmlns:xsi="http://www.w3.org/2001/XMLSchema-instance" version="1.1" creator="Adze - http://kobotsw.com/apps/adze" xsi:schemaLocation="http://www.topografix.com/GPX/1/1 http://www.topografix.com/GPX/1/1/gpx.xsd http://www.garmin.com/xmlschemas/GpxExtensions/v3 http://www.garmin.com/xmlschemas/GpxExtensionsv3.xsd">
    <metadata>
        <name>Untitled Document</name>
        <link href="http://www.garmin.com"></link>
        <time>2018-02-04T08:40:54.888Z</time>
    </metadata>
    <wpt lon="100.974978" lat="12.905597">
        <ele>74.000000</ele>
        <time>2016-06-24T08:38:17Z</time>
        <name>Horseshoe Point</name>
        <sym>Lodging</sym>
        <extensions>
            <gpxx:WaypointExtension xmlns:gpxx="http://www.garmin.com/xmlschemas/GpxExtensions/v3">
                <gpxx:DisplayMode>SymbolAndName</gpxx:DisplayMode>
            </gpxx:WaypointExtension>
        </extensions>
    </wpt>
    <wpt lon="100.982252" lat="12.952126">
        <ele>66.000000</ele>
        <time>2016-06-26T04:01:42Z</time>
        <name>Water Sunday</name>
        <sym>Drinking Water</sym>
        <extensions>
            <gpxx:WaypointExtension xmlns:gpxx="http://www.garmin.com/xmlschemas/GpxExtensions/v3">
                <gpxx:DisplayMode>SymbolOnly</gpxx:DisplayMode>
            </gpxx:WaypointExtension>
        </extensions>
    </wpt>
    <trk>
        <name>Sunday</name>
        <extensions>
            <gpxx:TrackExtension xmlns:gpxx="http://www.garmin.com/xmlschemas/GpxExtensions/v3">
                <gpxx:DisplayColor>Green</gpxx:DisplayColor>
            </gpxx:TrackExtension>
        </extensions>
        <trkseg>
            <trkpt lon="100.974527" lat="12.906101">
                <ele>79.930000</ele>
                <time>2016-06-26T03:00:00Z</time>
            </trkpt>
            <trkpt lon="100.974314" lat="12.906094">
                <ele>79.930000</ele>
                <time>2016-06-26T03:00:10Z</time>
            </trkpt>
            <trkpt lon="100.973889" lat="12.904658">
                <ele>75.120000</ele>
                <time>2016-06-26T03:00:40Z</time>
            </trkpt>
            <trkpt lon="100.972942" lat="12.904612">
                <ele>75.120000</ele>
                <time>2016-06-26T03:00:58Z</time>
            </trkpt>
            <trkpt lon="100.972763" lat="12.905625">
                <ele>77.520000</ele>
                <time>2016-06-26T03:01:20Z</time>
            </trkpt>
            <trkpt lon="100.972678" lat="12.906004">
                <ele>77.040000</ele>
                <time>2016-06-26T03:01:28Z</time>
            </trkpt>
            <trkpt lon="100.972810" lat="12.906381">
                <ele>76.080000</ele>
                <time>2016-06-26T03:01:36Z</time>
            </trkpt>
            <trkpt lon="100.972694" lat="12.906631">
                <ele>76.080000</ele>
                <time>2016-06-26T03:01:42Z</time>
            </trkpt>
            <trkpt lon="100.972433" lat="12.906879">
                <ele>75.120000</ele>
                <time>2016-06-26T03:01:50Z</time>
            </trkpt>
            <trkpt lon="100.972019" lat="12.906867">
                <ele>75.120000</ele>
                <time>2016-06-26T03:02:02Z</time>
            </trkpt>
            <trkpt lon="100.971992" lat="12.906917">
                <ele>74.640000</ele>
                <time>2016-06-26T03:02:04Z</time>
            </trkpt>
            <trkpt lon="100.972333" lat="12.908377">
                <ele>70.790000</ele>
                <time>2016-06-26T03:02:41Z</time>
            </trkpt>
            <trkpt lon="100.972532" lat="12.908896">
                <ele>69.350000</ele>
                <time>2016-06-26T03:02:52Z</time>
            </trkpt>
            <trkpt lon="100.972839" lat="12.909951">
                <ele>63.580000</ele>
                <time>2016-06-26T03:03:20Z</time>
            </trkpt>
            <trkpt lon="100.971820" lat="12.910835">
                <ele>61.180000</ele>
                <time>2016-06-26T03:03:45Z</time>
            </trkpt>
            <trkpt lon="100.971268" lat="12.911816">
                <ele>59.260000</ele>
                <time>2016-06-26T03:04:03Z</time>
            </trkpt>
            <trkpt lon="100.970404" lat="12.912383">
                <ele>58.300000</ele>
                <time>2016-06-26T03:04:19Z</time>
            </trkpt>
            <trkpt lon="100.968498" lat="12.912490">
                <ele>60.700000</ele>
                <time>2016-06-26T03:04:54Z</time>
            </trkpt>
            <trkpt lon="100.968105" lat="12.912641">
                <ele>60.700000</ele>
                <time>2016-06-26T03:05:02Z</time>
            </trkpt>
            <trkpt lon="100.967176" lat="12.912634">
                <ele>60.700000</ele>
                <time>2016-06-26T03:05:18Z</time>
            </trkpt>
            <trkpt lon="100.965812" lat="12.912727">
                <ele>59.740000</ele>
                <time>2016-06-26T03:05:44Z</time>
            </trkpt>
            <trkpt lon="100.963529" lat="12.913400">
                <ele>61.660000</ele>
                <time>2016-06-26T03:06:25Z</time>
            </trkpt>
            <trkpt lon="100.962804" lat="12.914541">
                <ele>62.620000</ele>
                <time>2016-06-26T03:06:52Z</time>
            </trkpt>
            <trkpt lon="100.960175" lat="12.915007">
                <ele>57.820000</ele>
                <time>2016-06-26T03:07:48Z</time>
            </trkpt>
            <trkpt lon="100.959511" lat="12.915106">
                <ele>58.780000</ele>
                <time>2016-06-26T03:08:09Z</time>
            </trkpt>
            <trkpt lon="100.959694" lat="12.915632">
                <ele>60.220000</ele>
                <time>2016-06-26T03:08:27Z</time>
            </trkpt>
            <trkpt lon="100.960332" lat="12.916812">
                <ele>59.260000</ele>
                <time>2016-06-26T03:09:01Z</time>
            </trkpt>
            <trkpt lon="100.961220" lat="12.916606">
                <ele>56.860000</ele>
                <time>2016-06-26T03:09:24Z</time>
            </trkpt>
            <trkpt lon="100.961579" lat="12.920344">
                <ele>51.090000</ele>
                <time>2016-06-26T03:11:45Z</time>
            </trkpt>
            <trkpt lon="100.961434" lat="12.920830">
                <ele>51.090000</ele>
                <time>2016-06-26T03:12:47Z</time>
            </trkpt>
            <trkpt lon="100.961266" lat="12.921003">
                <ele>49.650000</ele>
                <time>2016-06-26T03:13:02Z</time>
            </trkpt>
            <trkpt lon="100.960626" lat="12.921168">
                <ele>47.720000</ele>
                <time>2016-06-26T03:13:22Z</time>
            </trkpt>
            <trkpt lon="100.960532" lat="12.920942">
                <ele>49.650000</ele>
                <time>2016-06-26T03:13:31Z</time>
            </trkpt>
            <trkpt lon="100.960364" lat="12.920766">
                <ele>51.090000</ele>
                <time>2016-06-26T03:13:42Z</time>
            </trkpt>
            <trkpt lon="100.960049" lat="12.920712">
                <ele>53.490000</ele>
                <time>2016-06-26T03:13:53Z</time>
            </trkpt>
            <trkpt lon="100.957720" lat="12.920249">
                <ele>57.340000</ele>
                <time>2016-06-26T03:15:06Z</time>
            </trkpt>
            <trkpt lon="100.957520" lat="12.920365">
                <ele>57.340000</ele>
                <time>2016-06-26T03:15:16Z</time>
            </trkpt>
            <trkpt lon="100.957521" lat="12.920588">
                <ele>56.860000</ele>
                <time>2016-06-26T03:15:25Z</time>
            </trkpt>
            <trkpt lon="100.957578" lat="12.921113">
                <ele>58.780000</ele>
                <time>2016-06-26T03:15:43Z</time>
            </trkpt>
            <trkpt lon="100.957644" lat="12.922068">
                <ele>59.740000</ele>
                <time>2016-06-26T03:16:15Z</time>
            </trkpt>
            <trkpt lon="100.957099" lat="12.922132">
                <ele>59.740000</ele>
                <time>2016-06-26T03:16:32Z</time>
            </trkpt>
            <trkpt lon="100.956997" lat="12.921710">
                <ele>62.620000</ele>
                <time>2016-06-26T03:16:48Z</time>
            </trkpt>
            <trkpt lon="100.957342" lat="12.921912">
                <ele>65.030000</ele>
                <time>2016-06-26T03:17:04Z</time>
            </trkpt>
            <trkpt lon="100.957497" lat="12.921720">
                <ele>65.030000</ele>
                <time>2016-06-26T03:17:12Z</time>
            </trkpt>
            <trkpt lon="100.957363" lat="12.921257">
                <ele>68.390000</ele>
                <time>2016-06-26T03:17:28Z</time>
            </trkpt>
            <trkpt lon="100.957161" lat="12.921286">
                <ele>70.790000</ele>
                <time>2016-06-26T03:17:37Z</time>
            </trkpt>
            <trkpt lon="100.956266" lat="12.920951">
                <ele>70.790000</ele>
                <time>2016-06-26T03:18:11Z</time>
            </trkpt>
            <trkpt lon="100.956160" lat="12.921144">
                <ele>68.870000</ele>
                <time>2016-06-26T03:18:20Z</time>
            </trkpt>
            <trkpt lon="100.956317" lat="12.921314">
                <ele>68.390000</ele>
                <time>2016-06-26T03:18:28Z</time>
            </trkpt>
            <trkpt lon="100.956322" lat="12.921344">
                <ele>67.910000</ele>
                <time>2016-06-26T03:18:29Z</time>
            </trkpt>
            <trkpt lon="100.956139" lat="12.921532">
                <ele>67.430000</ele>
                <time>2016-06-26T03:18:42Z</time>
            </trkpt>
            <trkpt lon="100.956285" lat="12.921849">
                <ele>63.580000</ele>
                <time>2016-06-26T03:18:53Z</time>
            </trkpt>
            <trkpt lon="100.956072" lat="12.921860">
                <ele>58.780000</ele>
                <time>2016-06-26T03:19:06Z</time>
            </trkpt>
            <trkpt lon="100.955927" lat="12.921422">
                <ele>60.700000</ele>
                <time>2016-06-26T03:19:31Z</time>
            </trkpt>
            <trkpt lon="100.955978" lat="12.920975">
                <ele>61.180000</ele>
                <time>2016-06-26T03:19:48Z</time>
            </trkpt>
            <trkpt lon="100.955821" lat="12.920906">
                <ele>61.180000</ele>
                <time>2016-06-26T03:19:58Z</time>
            </trkpt>
            <trkpt lon="100.955839" lat="12.921048">
                <ele>60.700000</ele>
                <time>2016-06-26T03:20:06Z</time>
            </trkpt>
            <trkpt lon="100.955863" lat="12.921269">
                <ele>61.660000</ele>
                <time>2016-06-26T03:20:18Z</time>
            </trkpt>
            <trkpt lon="100.955551" lat="12.921375">
                <ele>62.140000</ele>
                <time>2016-06-26T03:20:31Z</time>
            </trkpt>
            <trkpt lon="100.955242" lat="12.921648">
                <ele>60.700000</ele>
                <time>2016-06-26T03:20:49Z</time>
            </trkpt>
            <trkpt lon="100.955301" lat="12.922213">
                <ele>56.370000</ele>
                <time>2016-06-26T03:21:11Z</time>
            </trkpt>
            <trkpt lon="100.955175" lat="12.922609">
                <ele>51.570000</ele>
                <time>2016-06-26T03:21:24Z</time>
            </trkpt>
            <trkpt lon="100.955051" lat="12.922889">
                <ele>52.530000</ele>
                <time>2016-06-26T03:21:35Z</time>
            </trkpt>
            <trkpt lon="100.955190" lat="12.923404">
                <ele>52.530000</ele>
                <time>2016-06-26T03:21:51Z</time>
            </trkpt>
            <trkpt lon="100.955353" lat="12.923726">
                <ele>52.530000</ele>
                <time>2016-06-26T03:22:02Z</time>
            </trkpt>
            <trkpt lon="100.955238" lat="12.923940">
                <ele>52.050000</ele>
                <time>2016-06-26T03:22:09Z</time>
            </trkpt>
            <trkpt lon="100.954943" lat="12.924355">
                <ele>49.650000</ele>
                <time>2016-06-26T03:22:21Z</time>
            </trkpt>
            <trkpt lon="100.954934" lat="12.924682">
                <ele>47.720000</ele>
                <time>2016-06-26T03:22:31Z</time>
            </trkpt>
            <trkpt lon="100.954648" lat="12.925460">
                <ele>49.160000</ele>
                <time>2016-06-26T03:22:54Z</time>
            </trkpt>
            <trkpt lon="100.954766" lat="12.926085">
                <ele>50.130000</ele>
                <time>2016-06-26T03:23:12Z</time>
            </trkpt>
            <trkpt lon="100.955007" lat="12.926175">
                <ele>50.130000</ele>
                <time>2016-06-26T03:23:20Z</time>
            </trkpt>
            <trkpt lon="100.955430" lat="12.926557">
                <ele>48.200000</ele>
                <time>2016-06-26T03:23:36Z</time>
            </trkpt>
            <trkpt lon="100.955576" lat="12.926924">
                <ele>45.800000</ele>
                <time>2016-06-26T03:23:47Z</time>
            </trkpt>
            <trkpt lon="100.955703" lat="12.927517">
                <ele>43.400000</ele>
                <time>2016-06-26T03:24:06Z</time>
            </trkpt>
            <trkpt lon="100.955775" lat="12.927725">
                <ele>45.800000</ele>
                <time>2016-06-26T03:24:14Z</time>
            </trkpt>
            <trkpt lon="100.955644" lat="12.928054">
                <ele>49.650000</ele>
                <time>2016-06-26T03:24:25Z</time>
            </trkpt>
            <trkpt lon="100.955471" lat="12.928487">
                <ele>45.800000</ele>
                <time>2016-06-26T03:24:37Z</time>
            </trkpt>
            <trkpt lon="100.955745" lat="12.928839">
                <ele>48.680000</ele>
                <time>2016-06-26T03:24:50Z</time>
            </trkpt>
            <trkpt lon="100.956143" lat="12.929014">
                <ele>47.240000</ele>
                <time>2016-06-26T03:25:06Z</time>
            </trkpt>
            <trkpt lon="100.955910" lat="12.929298">
                <ele>45.320000</ele>
                <time>2016-06-26T03:25:21Z</time>
            </trkpt>
            <trkpt lon="100.955798" lat="12.929527">
                <ele>43.880000</ele>
                <time>2016-06-26T03:25:35Z</time>
            </trkpt>
            <trkpt lon="100.955841" lat="12.929217">
                <ele>43.880000</ele>
                <time>2016-06-26T03:26:01Z</time>
            </trkpt>
            <trkpt lon="100.955601" lat="12.929314">
                <ele>42.920000</ele>
                <time>2016-06-26T03:26:18Z</time>
            </trkpt>
            <trkpt lon="100.955457" lat="12.928968">
                <ele>44.360000</ele>
                <time>2016-06-26T03:26:34Z</time>
            </trkpt>
            <trkpt lon="100.955135" lat="12.929368">
                <ele>44.360000</ele>
                <time>2016-06-26T03:26:55Z</time>
            </trkpt>
            <trkpt lon="100.955167" lat="12.929571">
                <ele>44.840000</ele>
                <time>2016-06-26T03:27:01Z</time>
            </trkpt>
            <trkpt lon="100.955582" lat="12.929491">
                <ele>46.760000</ele>
                <time>2016-06-26T03:27:18Z</time>
            </trkpt>
            <trkpt lon="100.955575" lat="12.929689">
                <ele>45.800000</ele>
                <time>2016-06-26T03:27:28Z</time>
            </trkpt>
            <trkpt lon="100.955954" lat="12.930155">
                <ele>45.320000</ele>
                <time>2016-06-26T03:27:49Z</time>
            </trkpt>
            <trkpt lon="100.956016" lat="12.930622">
                <ele>43.880000</ele>
                <time>2016-06-26T03:28:06Z</time>
            </trkpt>
            <trkpt lon="100.956069" lat="12.930740">
                <ele>42.440000</ele>
                <time>2016-06-26T03:28:11Z</time>
            </trkpt>
            <trkpt lon="100.956326" lat="12.930818">
                <ele>41.470000</ele>
                <time>2016-06-26T03:28:23Z</time>
            </trkpt>
            <trkpt lon="100.956560" lat="12.930936">
                <ele>43.400000</ele>
                <time>2016-06-26T03:28:34Z</time>
            </trkpt>
            <trkpt lon="100.955700" lat="12.930998">
                <ele>45.320000</ele>
                <time>2016-06-26T03:29:04Z</time>
            </trkpt>
            <trkpt lon="100.955736" lat="12.931160">
                <ele>44.360000</ele>
                <time>2016-06-26T03:29:13Z</time>
            </trkpt>
            <trkpt lon="100.955891" lat="12.931240">
                <ele>44.360000</ele>
                <time>2016-06-26T03:29:20Z</time>
            </trkpt>
            <trkpt lon="100.955536" lat="12.931647">
                <ele>44.840000</ele>
                <time>2016-06-26T03:29:37Z</time>
            </trkpt>
            <trkpt lon="100.956223" lat="12.931397">
                <ele>43.400000</ele>
                <time>2016-06-26T03:30:07Z</time>
            </trkpt>
            <trkpt lon="100.956404" lat="12.931489">
                <ele>43.880000</ele>
                <time>2016-06-26T03:30:14Z</time>
            </trkpt>
            <trkpt lon="100.956384" lat="12.931702">
                <ele>42.440000</ele>
                <time>2016-06-26T03:30:24Z</time>
            </trkpt>
            <trkpt lon="100.956004" lat="12.931733">
                <ele>43.880000</ele>
                <time>2016-06-26T03:30:37Z</time>
            </trkpt>
            <trkpt lon="100.955817" lat="12.931978">
                <ele>45.800000</ele>
                <time>2016-06-26T03:30:48Z</time>
            </trkpt>
            <trkpt lon="100.956031" lat="12.932173">
                <ele>48.680000</ele>
                <time>2016-06-26T03:31:02Z</time>
            </trkpt>
            <trkpt lon="100.956483" lat="12.932860">
                <ele>48.200000</ele>
                <time>2016-06-26T03:31:33Z</time>
            </trkpt>
            <trkpt lon="100.956427" lat="12.933559">
                <ele>43.880000</ele>
                <time>2016-06-26T03:31:55Z</time>
            </trkpt>
            <trkpt lon="100.955868" lat="12.934759">
                <ele>41.950000</ele>
                <time>2016-06-26T03:32:43Z</time>
            </trkpt>
            <trkpt lon="100.956028" lat="12.935198">
                <ele>41.470000</ele>
                <time>2016-06-26T03:33:04Z</time>
            </trkpt>
            <trkpt lon="100.955829" lat="12.935580">
                <ele>41.950000</ele>
                <time>2016-06-26T03:33:18Z</time>
            </trkpt>
            <trkpt lon="100.955984" lat="12.935882">
                <ele>42.440000</ele>
                <time>2016-06-26T03:33:30Z</time>
            </trkpt>
            <trkpt lon="100.956441" lat="12.936126">
                <ele>46.760000</ele>
                <time>2016-06-26T03:33:50Z</time>
            </trkpt>
            <trkpt lon="100.956703" lat="12.936383">
                <ele>45.320000</ele>
                <time>2016-06-26T03:34:01Z</time>
            </trkpt>
            <trkpt lon="100.957358" lat="12.936794">
                <ele>43.400000</ele>
                <time>2016-06-26T03:34:22Z</time>
            </trkpt>
            <trkpt lon="100.957541" lat="12.936253">
                <ele>39.070000</ele>
                <time>2016-06-26T03:35:06Z</time>
            </trkpt>
            <trkpt lon="100.957618" lat="12.936316">
                <ele>38.590000</ele>
                <time>2016-06-26T03:35:10Z</time>
            </trkpt>
            <trkpt lon="100.958574" lat="12.940777">
                <ele>54.930000</ele>
                <time>2016-06-26T03:37:32Z</time>
            </trkpt>
            <trkpt lon="100.958801" lat="12.940688">
                <ele>52.050000</ele>
                <time>2016-06-26T03:37:46Z</time>
            </trkpt>
            <trkpt lon="100.958774" lat="12.940006">
                <ele>50.130000</ele>
                <time>2016-06-26T03:38:06Z</time>
            </trkpt>
            <trkpt lon="100.959636" lat="12.939655">
                <ele>49.160000</ele>
                <time>2016-06-26T03:38:36Z</time>
            </trkpt>
            <trkpt lon="100.959963" lat="12.939651">
                <ele>48.680000</ele>
                <time>2016-06-26T03:38:47Z</time>
            </trkpt>
            <trkpt lon="100.960227" lat="12.939877">
                <ele>52.050000</ele>
                <time>2016-06-26T03:38:59Z</time>
            </trkpt>
            <trkpt lon="100.960497" lat="12.940452">
                <ele>55.410000</ele>
                <time>2016-06-26T03:39:24Z</time>
            </trkpt>
            <trkpt lon="100.960084" lat="12.941542">
                <ele>55.890000</ele>
                <time>2016-06-26T03:40:34Z</time>
            </trkpt>
            <trkpt lon="100.959859" lat="12.942112">
                <ele>56.370000</ele>
                <time>2016-06-26T03:41:51Z</time>
            </trkpt>
            <trkpt lon="100.960273" lat="12.942639">
                <ele>57.820000</ele>
                <time>2016-06-26T03:42:18Z</time>
            </trkpt>
            <trkpt lon="100.960634" lat="12.942908">
                <ele>58.780000</ele>
                <time>2016-06-26T03:42:37Z</time>
            </trkpt>
            <trkpt lon="100.960665" lat="12.943226">
                <ele>58.780000</ele>
                <time>2016-06-26T03:42:50Z</time>
            </trkpt>
            <trkpt lon="100.960640" lat="12.943814">
                <ele>58.780000</ele>
                <time>2016-06-26T03:43:16Z</time>
            </trkpt>
            <trkpt lon="100.960813" lat="12.944039">
                <ele>60.700000</ele>
                <time>2016-06-26T03:43:38Z</time>
            </trkpt>
            <trkpt lon="100.960983" lat="12.944287">
                <ele>59.740000</ele>
                <time>2016-06-26T03:44:03Z</time>
            </trkpt>
            <trkpt lon="100.960718" lat="12.945119">
                <ele>65.030000</ele>
                <time>2016-06-26T03:44:42Z</time>
            </trkpt>
            <trkpt lon="100.961067" lat="12.945326">
                <ele>68.870000</ele>
                <time>2016-06-26T03:45:00Z</time>
            </trkpt>
            <trkpt lon="100.961157" lat="12.945500">
                <ele>69.830000</ele>
                <time>2016-06-26T03:45:10Z</time>
            </trkpt>
            <trkpt lon="100.961012" lat="12.945744">
                <ele>68.390000</ele>
                <time>2016-06-26T03:45:39Z</time>
            </trkpt>
            <trkpt lon="100.960568" lat="12.945764">
                <ele>66.470000</ele>
                <time>2016-06-26T03:45:56Z</time>
            </trkpt>
            <trkpt lon="100.959127" lat="12.946412">
                <ele>61.180000</ele>
                <time>2016-06-26T03:46:28Z</time>
            </trkpt>
            <trkpt lon="100.959064" lat="12.946561">
                <ele>60.700000</ele>
                <time>2016-06-26T03:46:33Z</time>
            </trkpt>
            <trkpt lon="100.959568" lat="12.947276">
                <ele>59.260000</ele>
                <time>2016-06-26T03:46:54Z</time>
            </trkpt>
            <trkpt lon="100.960122" lat="12.947019">
                <ele>59.740000</ele>
                <time>2016-06-26T03:47:12Z</time>
            </trkpt>
            <trkpt lon="100.960688" lat="12.947134">
                <ele>61.180000</ele>
                <time>2016-06-26T03:47:27Z</time>
            </trkpt>
            <trkpt lon="100.961324" lat="12.947348">
                <ele>61.660000</ele>
                <time>2016-06-26T03:47:44Z</time>
            </trkpt>
            <trkpt lon="100.961986" lat="12.948264">
                <ele>65.030000</ele>
                <time>2016-06-26T03:48:13Z</time>
            </trkpt>
            <trkpt lon="100.962065" lat="12.948650">
                <ele>65.510000</ele>
                <time>2016-06-26T03:48:22Z</time>
            </trkpt>
            <trkpt lon="100.962139" lat="12.949107">
                <ele>65.030000</ele>
                <time>2016-06-26T03:48:32Z</time>
            </trkpt>
            <trkpt lon="100.962632" lat="12.950044">
                <ele>65.030000</ele>
                <time>2016-06-26T03:48:56Z</time>
            </trkpt>
            <trkpt lon="100.962701" lat="12.950183">
                <ele>65.510000</ele>
                <time>2016-06-26T03:48:59Z</time>
            </trkpt>
            <trkpt lon="100.962857" lat="12.950327">
                <ele>65.990000</ele>
                <time>2016-06-26T03:49:03Z</time>
            </trkpt>
            <trkpt lon="100.963300" lat="12.950508">
                <ele>66.470000</ele>
                <time>2016-06-26T03:49:13Z</time>
            </trkpt>
            <trkpt lon="100.963912" lat="12.950458">
                <ele>67.430000</ele>
                <time>2016-06-26T03:49:27Z</time>
            </trkpt>
            <trkpt lon="100.964679" lat="12.950627">
                <ele>68.390000</ele>
                <time>2016-06-26T03:49:46Z</time>
            </trkpt>
            <trkpt lon="100.965364" lat="12.950994">
                <ele>66.470000</ele>
                <time>2016-06-26T03:50:02Z</time>
            </trkpt>
            <trkpt lon="100.965819" lat="12.952192">
                <ele>66.470000</ele>
                <time>2016-06-26T03:50:26Z</time>
            </trkpt>
            <trkpt lon="100.965930" lat="12.952551">
                <ele>65.990000</ele>
                <time>2016-06-26T03:50:33Z</time>
            </trkpt>
            <trkpt lon="100.966001" lat="12.952588">
                <ele>65.990000</ele>
                <time>2016-06-26T03:50:35Z</time>
            </trkpt>
            <trkpt lon="100.967216" lat="12.952749">
                <ele>61.180000</ele>
                <time>2016-06-26T03:50:56Z</time>
            </trkpt>
            <trkpt lon="100.968707" lat="12.953192">
                <ele>56.370000</ele>
                <time>2016-06-26T03:51:15Z</time>
            </trkpt>
            <trkpt lon="100.971417" lat="12.954571">
                <ele>59.260000</ele>
                <time>2016-06-26T03:52:02Z</time>
            </trkpt>
            <trkpt lon="100.971202" lat="12.956084">
                <ele>65.030000</ele>
                <time>2016-06-26T03:52:52Z</time>
            </trkpt>
            <trkpt lon="100.971227" lat="12.956097">
                <ele>65.030000</ele>
                <time>2016-06-26T03:52:53Z</time>
            </trkpt>
            <trkpt lon="100.972868" lat="12.955293">
                <ele>73.200000</ele>
                <time>2016-06-26T03:53:55Z</time>
            </trkpt>
            <trkpt lon="100.973448" lat="12.955064">
                <ele>73.680000</ele>
                <time>2016-06-26T03:54:12Z</time>
            </trkpt>
            <trkpt lon="100.975037" lat="12.954534">
                <ele>67.430000</ele>
                <time>2016-06-26T03:54:41Z</time>
            </trkpt>
            <trkpt lon="100.975211" lat="12.954537">
                <ele>66.470000</ele>
                <time>2016-06-26T03:54:43Z</time>
            </trkpt>
            <trkpt lon="100.975382" lat="12.954583">
                <ele>65.030000</ele>
                <time>2016-06-26T03:54:45Z</time>
            </trkpt>
            <trkpt lon="100.976038" lat="12.955086">
                <ele>63.100000</ele>
                <time>2016-06-26T03:54:59Z</time>
            </trkpt>
            <trkpt lon="100.975886" lat="12.954853">
                <ele>63.100000</ele>
                <time>2016-06-26T03:55:09Z</time>
            </trkpt>
            <trkpt lon="100.975279" lat="12.954450">
                <ele>62.140000</ele>
                <time>2016-06-26T03:55:27Z</time>
            </trkpt>
            <trkpt lon="100.975981" lat="12.954210">
                <ele>60.220000</ele>
                <time>2016-06-26T03:55:52Z</time>
            </trkpt>
            <trkpt lon="100.976111" lat="12.953828">
                <ele>57.340000</ele>
                <time>2016-06-26T03:56:03Z</time>
            </trkpt>
            <trkpt lon="100.976159" lat="12.952110">
                <ele>53.010000</ele>
                <time>2016-06-26T03:56:52Z</time>
            </trkpt>
            <trkpt lon="100.976224" lat="12.952028">
                <ele>52.530000</ele>
                <time>2016-06-26T03:56:58Z</time>
            </trkpt>
            <trkpt lon="100.976802" lat="12.952115">
                <ele>52.530000</ele>
                <time>2016-06-26T03:57:14Z</time>
            </trkpt>
            <trkpt lon="100.978216" lat="12.952939">
                <ele>53.970000</ele>
                <time>2016-06-26T03:57:57Z</time>
            </trkpt>
            <trkpt lon="100.978393" lat="12.953116">
                <ele>53.490000</ele>
                <time>2016-06-26T03:58:04Z</time>
            </trkpt>
            <trkpt lon="100.978557" lat="12.952974">
                <ele>53.490000</ele>
                <time>2016-06-26T03:58:22Z</time>
            </trkpt>
            <trkpt lon="100.978652" lat="12.952613">
                <ele>58.300000</ele>
                <time>2016-06-26T03:58:48Z</time>
            </trkpt>
            <trkpt lon="100.978858" lat="12.952149">
                <ele>55.890000</ele>
                <time>2016-06-26T03:59:14Z</time>
            </trkpt>
            <trkpt lon="100.979339" lat="12.952262">
                <ele>59.260000</ele>
                <time>2016-06-26T03:59:33Z</time>
            </trkpt>
            <trkpt lon="100.979608" lat="12.952606">
                <ele>59.260000</ele>
                <time>2016-06-26T03:59:46Z</time>
            </trkpt>
            <trkpt lon="100.980090" lat="12.952959">
                <ele>59.740000</ele>
                <time>2016-06-26T04:00:01Z</time>
            </trkpt>
            <trkpt lon="100.981213" lat="12.953307">
                <ele>60.220000</ele>
                <time>2016-06-26T04:00:32Z</time>
            </trkpt>
            <trkpt lon="100.981556" lat="12.953257">
                <ele>61.180000</ele>
                <time>2016-06-26T04:00:40Z</time>
            </trkpt>
            <trkpt lon="100.981593" lat="12.953239">
                <ele>61.180000</ele>
                <time>2016-06-26T04:00:41Z</time>
            </trkpt>
            <trkpt lon="100.982354" lat="12.952237">
                <ele>64.550000</ele>
                <time>2016-06-26T04:01:21Z</time>
            </trkpt>
            <trkpt lon="100.982272" lat="12.952154">
                <ele>78.480000</ele>
                <time>2016-06-26T04:04:35Z</time>
            </trkpt>
            <trkpt lon="100.982270" lat="12.952133">
                <ele>76.560000</ele>
                <time>2016-06-26T04:05:05Z</time>
            </trkpt>
            <trkpt lon="100.982279" lat="12.952132">
                <ele>74.160000</ele>
                <time>2016-06-26T04:05:47Z</time>
            </trkpt>
            <trkpt lon="100.982268" lat="12.952135">
                <ele>72.240000</ele>
                <time>2016-06-26T04:06:26Z</time>
            </trkpt>
            <trkpt lon="100.982273" lat="12.952139">
                <ele>71.760000</ele>
                <time>2016-06-26T04:07:04Z</time>
            </trkpt>
            <trkpt lon="100.982278" lat="12.952128">
                <ele>67.430000</ele>
                <time>2016-06-26T04:07:58Z</time>
            </trkpt>
            <trkpt lon="100.982246" lat="12.952123">
                <ele>64.550000</ele>
                <time>2016-06-26T04:08:37Z</time>
            </trkpt>
            <trkpt lon="100.982235" lat="12.952125">
                <ele>67.910000</ele>
                <time>2016-06-26T04:09:53Z</time>
            </trkpt>
            <trkpt lon="100.982239" lat="12.952153">
                <ele>69.350000</ele>
                <time>2016-06-26T04:10:39Z</time>
            </trkpt>
            <trkpt lon="100.982236" lat="12.952102">
                <ele>65.990000</ele>
                <time>2016-06-26T04:11:18Z</time>
            </trkpt>
            <trkpt lon="100.982266" lat="12.952118">
                <ele>69.830000</ele>
                <time>2016-06-26T04:12:07Z</time>
            </trkpt>
            <trkpt lon="100.982265" lat="12.952107">
                <ele>66.950000</ele>
                <time>2016-06-26T04:12:49Z</time>
            </trkpt>
            <trkpt lon="100.982242" lat="12.952133">
                <ele>65.990000</ele>
                <time>2016-06-26T04:14:09Z</time>
            </trkpt>
            <trkpt lon="100.982280" lat="12.952174">
                <ele>65.990000</ele>
                <time>2016-06-26T04:14:36Z</time>
            </trkpt>
            <trkpt lon="100.982300" lat="12.952194">
                <ele>65.990000</ele>
                <time>2016-06-26T04:14:38Z</time>
            </trkpt>
            <trkpt lon="100.982506" lat="12.952123">
                <ele>67.910000</ele>
                <time>2016-06-26T04:14:48Z</time>
            </trkpt>
            <trkpt lon="100.984397" lat="12.950239">
                <ele>76.080000</ele>
                <time>2016-06-26T04:16:19Z</time>
            </trkpt>
            <trkpt lon="100.984548" lat="12.949743">
                <ele>74.160000</ele>
                <time>2016-06-26T04:16:36Z</time>
            </trkpt>
            <trkpt lon="100.985142" lat="12.948498">
                <ele>76.560000</ele>
                <time>2016-06-26T04:17:13Z</time>
            </trkpt>
            <trkpt lon="100.985559" lat="12.947689">
                <ele>75.600000</ele>
                <time>2016-06-26T04:17:35Z</time>
            </trkpt>
            <trkpt lon="100.985939" lat="12.946960">
                <ele>73.680000</ele>
                <time>2016-06-26T04:17:50Z</time>
            </trkpt>
            <trkpt lon="100.986724" lat="12.946352">
                <ele>69.350000</ele>
                <time>2016-06-26T04:18:04Z</time>
            </trkpt>
            <trkpt lon="100.987423" lat="12.945934">
                <ele>66.950000</ele>
                <time>2016-06-26T04:18:15Z</time>
            </trkpt>
            <trkpt lon="100.987834" lat="12.945075">
                <ele>66.470000</ele>
                <time>2016-06-26T04:18:30Z</time>
            </trkpt>
            <trkpt lon="100.988176" lat="12.944771">
                <ele>66.470000</ele>
                <time>2016-06-26T04:18:38Z</time>
            </trkpt>
            <trkpt lon="100.990023" lat="12.944261">
                <ele>67.910000</ele>
                <time>2016-06-26T04:19:17Z</time>
            </trkpt>
            <trkpt lon="100.990210" lat="12.943702">
                <ele>68.390000</ele>
                <time>2016-06-26T04:19:30Z</time>
            </trkpt>
            <trkpt lon="100.990075" lat="12.942913">
                <ele>65.510000</ele>
                <time>2016-06-26T04:19:44Z</time>
            </trkpt>
            <trkpt lon="100.989734" lat="12.942014">
                <ele>65.030000</ele>
                <time>2016-06-26T04:20:00Z</time>
            </trkpt>
            <trkpt lon="100.989308" lat="12.941469">
                <ele>66.950000</ele>
                <time>2016-06-26T04:20:16Z</time>
            </trkpt>
            <trkpt lon="100.989234" lat="12.940941">
                <ele>67.910000</ele>
                <time>2016-06-26T04:20:30Z</time>
            </trkpt>
            <trkpt lon="100.989268" lat="12.940825">
                <ele>67.910000</ele>
                <time>2016-06-26T04:20:33Z</time>
            </trkpt>
            <trkpt lon="100.989487" lat="12.940448">
                <ele>69.830000</ele>
                <time>2016-06-26T04:21:22Z</time>
            </trkpt>
            <trkpt lon="100.989610" lat="12.940508">
                <ele>70.310000</ele>
                <time>2016-06-26T04:21:35Z</time>
            </trkpt>
            <trkpt lon="100.990592" lat="12.940091">
                <ele>71.270000</ele>
                <time>2016-06-26T04:22:06Z</time>
            </trkpt>
            <trkpt lon="100.991610" lat="12.939511">
                <ele>70.310000</ele>
                <time>2016-06-26T04:22:39Z</time>
            </trkpt>
            <trkpt lon="100.992221" lat="12.938996">
                <ele>71.760000</ele>
                <time>2016-06-26T04:27:46Z</time>
            </trkpt>
            <trkpt lon="100.992596" lat="12.939462">
                <ele>69.830000</ele>
                <time>2016-06-26T04:30:02Z</time>
            </trkpt>
            <trkpt lon="100.992406" lat="12.939748">
                <ele>71.270000</ele>
                <time>2016-06-26T04:30:29Z</time>
            </trkpt>
            <trkpt lon="100.992435" lat="12.939975">
                <ele>68.390000</ele>
                <time>2016-06-26T04:30:40Z</time>
            </trkpt>
            <trkpt lon="100.992230" lat="12.940257">
                <ele>67.910000</ele>
                <time>2016-06-26T04:30:51Z</time>
            </trkpt>
            <trkpt lon="100.991553" lat="12.940661">
                <ele>68.390000</ele>
                <time>2016-06-26T04:31:16Z</time>
            </trkpt>
            <trkpt lon="100.991459" lat="12.940684">
                <ele>67.430000</ele>
                <time>2016-06-26T04:31:25Z</time>
            </trkpt>
            <trkpt lon="100.991204" lat="12.940764">
                <ele>67.910000</ele>
                <time>2016-06-26T04:31:53Z</time>
            </trkpt>
            <trkpt lon="100.990512" lat="12.940128">
                <ele>68.390000</ele>
                <time>2016-06-26T04:32:37Z</time>
            </trkpt>
            <trkpt lon="100.991816" lat="12.939380">
                <ele>69.830000</ele>
                <time>2016-06-26T04:33:26Z</time>
            </trkpt>
            <trkpt lon="100.992366" lat="12.938831">
                <ele>71.760000</ele>
                <time>2016-06-26T04:33:54Z</time>
            </trkpt>
            <trkpt lon="100.993530" lat="12.937389">
                <ele>76.080000</ele>
                <time>2016-06-26T04:35:37Z</time>
            </trkpt>
            <trkpt lon="100.993563" lat="12.936874">
                <ele>80.410000</ele>
                <time>2016-06-26T04:37:39Z</time>
            </trkpt>
            <trkpt lon="100.993474" lat="12.936544">
                <ele>81.850000</ele>
                <time>2016-06-26T04:38:02Z</time>
            </trkpt>
            <trkpt lon="100.993763" lat="12.936403">
                <ele>83.290000</ele>
                <time>2016-06-26T04:38:20Z</time>
            </trkpt>
            <trkpt lon="100.993651" lat="12.935941">
                <ele>84.730000</ele>
                <time>2016-06-26T04:38:45Z</time>
            </trkpt>
            <trkpt lon="100.993588" lat="12.935618">
                <ele>84.250000</ele>
                <time>2016-06-26T04:38:57Z</time>
            </trkpt>
            <trkpt lon="100.994261" lat="12.935316">
                <ele>85.210000</ele>
                <time>2016-06-26T04:39:27Z</time>
            </trkpt>
            <trkpt lon="100.994134" lat="12.934294">
                <ele>82.810000</ele>
                <time>2016-06-26T04:40:03Z</time>
            </trkpt>
            <trkpt lon="100.996463" lat="12.932764">
                <ele>89.060000</ele>
                <time>2016-06-26T04:41:21Z</time>
            </trkpt>
            <trkpt lon="100.997454" lat="12.932722">
                <ele>90.980000</ele>
                <time>2016-06-26T04:41:53Z</time>
            </trkpt>
            <trkpt lon="100.998513" lat="12.932469">
                <ele>95.790000</ele>
                <time>2016-06-26T04:42:29Z</time>
            </trkpt>
            <trkpt lon="100.998537" lat="12.932432">
                <ele>96.270000</ele>
                <time>2016-06-26T04:42:31Z</time>
            </trkpt>
            <trkpt lon="100.998311" lat="12.931832">
                <ele>94.350000</ele>
                <time>2016-06-26T04:42:55Z</time>
            </trkpt>
            <trkpt lon="100.998412" lat="12.931017">
                <ele>95.310000</ele>
                <time>2016-06-26T04:43:29Z</time>
            </trkpt>
            <trkpt lon="100.999034" lat="12.930339">
                <ele>98.190000</ele>
                <time>2016-06-26T04:44:16Z</time>
            </trkpt>
            <trkpt lon="100.998860" lat="12.929768">
                <ele>91.940000</ele>
                <time>2016-06-26T04:44:35Z</time>
            </trkpt>
            <trkpt lon="100.999575" lat="12.929170">
                <ele>92.900000</ele>
                <time>2016-06-26T04:45:01Z</time>
            </trkpt>
            <trkpt lon="100.999828" lat="12.928806">
                <ele>91.460000</ele>
                <time>2016-06-26T04:45:13Z</time>
            </trkpt>
            <trkpt lon="101.000959" lat="12.927954">
                <ele>94.830000</ele>
                <time>2016-06-26T04:46:04Z</time>
            </trkpt>
            <trkpt lon="101.001530" lat="12.927920">
                <ele>98.190000</ele>
                <time>2016-06-26T04:46:27Z</time>
            </trkpt>
            <trkpt lon="101.001667" lat="12.928037">
                <ele>100.600000</ele>
                <time>2016-06-26T04:46:39Z</time>
            </trkpt>
            <trkpt lon="101.001761" lat="12.928077">
                <ele>101.560000</ele>
                <time>2016-06-26T04:46:46Z</time>
            </trkpt>
            <trkpt lon="101.001844" lat="12.927798">
                <ele>100.110000</ele>
                <time>2016-06-26T04:46:58Z</time>
            </trkpt>
            <trkpt lon="101.001711" lat="12.927419">
                <ele>98.670000</ele>
                <time>2016-06-26T04:47:12Z</time>
            </trkpt>
            <trkpt lon="101.001633" lat="12.926937">
                <ele>93.390000</ele>
                <time>2016-06-26T04:47:27Z</time>
            </trkpt>
            <trkpt lon="101.001728" lat="12.926685">
                <ele>92.420000</ele>
                <time>2016-06-26T04:47:37Z</time>
            </trkpt>
            <trkpt lon="101.002343" lat="12.926107">
                <ele>95.790000</ele>
                <time>2016-06-26T04:48:08Z</time>
            </trkpt>
            <trkpt lon="101.002388" lat="12.926045">
                <ele>95.790000</ele>
                <time>2016-06-26T04:48:11Z</time>
            </trkpt>
            <trkpt lon="101.002389" lat="12.925893">
                <ele>94.830000</ele>
                <time>2016-06-26T04:48:48Z</time>
            </trkpt>
            <trkpt lon="101.002947" lat="12.925290">
                <ele>93.390000</ele>
                <time>2016-06-26T04:50:04Z</time>
            </trkpt>
            <trkpt lon="101.003147" lat="12.924995">
                <ele>88.580000</ele>
                <time>2016-06-26T04:50:20Z</time>
            </trkpt>
            <trkpt lon="101.002811" lat="12.924721">
                <ele>84.730000</ele>
                <time>2016-06-26T04:51:09Z</time>
            </trkpt>
            <trkpt lon="101.002907" lat="12.924587">
                <ele>90.980000</ele>
                <time>2016-06-26T04:52:28Z</time>
            </trkpt>
            <trkpt lon="101.002822" lat="12.924342">
                <ele>99.150000</ele>
                <time>2016-06-26T04:53:35Z</time>
            </trkpt>
            <trkpt lon="101.002767" lat="12.924332">
                <ele>98.670000</ele>
                <time>2016-06-26T04:53:42Z</time>
            </trkpt>
            <trkpt lon="101.001917" lat="12.924708">
                <ele>93.390000</ele>
                <time>2016-06-26T04:54:57Z</time>
            </trkpt>
            <trkpt lon="101.001589" lat="12.924984">
                <ele>91.940000</ele>
                <time>2016-06-26T04:55:30Z</time>
            </trkpt>
            <trkpt lon="101.000981" lat="12.925524">
                <ele>90.020000</ele>
                <time>2016-06-26T04:55:57Z</time>
            </trkpt>
            <trkpt lon="101.000342" lat="12.923977">
                <ele>95.790000</ele>
                <time>2016-06-26T04:57:36Z</time>
            </trkpt>
            <trkpt lon="101.000247" lat="12.923320">
                <ele>96.750000</ele>
                <time>2016-06-26T04:58:10Z</time>
            </trkpt>
            <trkpt lon="101.000338" lat="12.923230">
                <ele>96.750000</ele>
                <time>2016-06-26T04:58:15Z</time>
            </trkpt>
            <trkpt lon="101.000287" lat="12.923139">
                <ele>96.750000</ele>
                <time>2016-06-26T04:58:19Z</time>
            </trkpt>
            <trkpt lon="101.000115" lat="12.923096">
                <ele>96.750000</ele>
                <time>2016-06-26T04:58:25Z</time>
            </trkpt>
            <trkpt lon="100.999912" lat="12.922798">
                <ele>96.750000</ele>
                <time>2016-06-26T04:58:36Z</time>
            </trkpt>
            <trkpt lon="100.999848" lat="12.922161">
                <ele>98.190000</ele>
                <time>2016-06-26T04:58:57Z</time>
            </trkpt>
            <trkpt lon="100.999776" lat="12.921752">
                <ele>98.190000</ele>
                <time>2016-06-26T04:59:10Z</time>
            </trkpt>
            <trkpt lon="100.998622" lat="12.920805">
                <ele>102.520000</ele>
                <time>2016-06-26T04:59:57Z</time>
            </trkpt>
            <trkpt lon="100.998178" lat="12.920599">
                <ele>102.040000</ele>
                <time>2016-06-26T05:00:11Z</time>
            </trkpt>
            <trkpt lon="100.997743" lat="12.920546">
                <ele>101.080000</ele>
                <time>2016-06-26T05:00:22Z</time>
            </trkpt>
            <trkpt lon="100.996962" lat="12.920514">
                <ele>99.630000</ele>
                <time>2016-06-26T05:00:40Z</time>
            </trkpt>
            <trkpt lon="100.996280" lat="12.921016">
                <ele>97.230000</ele>
                <time>2016-06-26T05:01:01Z</time>
            </trkpt>
            <trkpt lon="100.995460" lat="12.921789">
                <ele>93.390000</ele>
                <time>2016-06-26T05:01:23Z</time>
            </trkpt>
            <trkpt lon="100.994997" lat="12.921895">
                <ele>91.940000</ele>
                <time>2016-06-26T05:01:33Z</time>
            </trkpt>
            <trkpt lon="100.994190" lat="12.921379">
                <ele>91.460000</ele>
                <time>2016-06-26T05:01:56Z</time>
            </trkpt>
            <trkpt lon="100.993493" lat="12.920462">
                <ele>93.870000</ele>
                <time>2016-06-26T05:02:29Z</time>
            </trkpt>
            <trkpt lon="100.993045" lat="12.920085">
                <ele>93.870000</ele>
                <time>2016-06-26T05:02:46Z</time>
            </trkpt>
            <trkpt lon="100.991926" lat="12.919566">
                <ele>90.980000</ele>
                <time>2016-06-26T05:03:21Z</time>
            </trkpt>
            <trkpt lon="100.991696" lat="12.919081">
                <ele>90.020000</ele>
                <time>2016-06-26T05:03:38Z</time>
            </trkpt>
            <trkpt lon="100.990253" lat="12.919143">
                <ele>88.100000</ele>
                <time>2016-06-26T05:04:27Z</time>
            </trkpt>
            <trkpt lon="100.989321" lat="12.918985">
                <ele>89.060000</ele>
                <time>2016-06-26T05:05:15Z</time>
            </trkpt>
            <trkpt lon="100.988118" lat="12.918933">
                <ele>87.140000</ele>
                <time>2016-06-26T05:06:42Z</time>
            </trkpt>
            <trkpt lon="100.988037" lat="12.918799">
                <ele>86.180000</ele>
                <time>2016-06-26T05:07:01Z</time>
            </trkpt>
            <trkpt lon="100.987812" lat="12.918954">
                <ele>89.060000</ele>
                <time>2016-06-26T05:07:50Z</time>
            </trkpt>
            <trkpt lon="100.987541" lat="12.918947">
                <ele>89.060000</ele>
                <time>2016-06-26T05:08:17Z</time>
            </trkpt>
            <trkpt lon="100.987519" lat="12.918824">
                <ele>89.060000</ele>
                <time>2016-06-26T05:08:25Z</time>
            </trkpt>
            <trkpt lon="100.987806" lat="12.918685">
                <ele>91.460000</ele>
                <time>2016-06-26T05:08:42Z</time>
            </trkpt>
            <trkpt lon="100.987884" lat="12.918704">
                <ele>90.500000</ele>
                <time>2016-06-26T05:08:54Z</time>
            </trkpt>
            <trkpt lon="100.987960" lat="12.918246">
                <ele>89.540000</ele>
                <time>2016-06-26T05:09:18Z</time>
            </trkpt>
            <trkpt lon="100.988237" lat="12.917801">
                <ele>90.020000</ele>
                <time>2016-06-26T05:09:33Z</time>
            </trkpt>
            <trkpt lon="100.988789" lat="12.917138">
                <ele>86.660000</ele>
                <time>2016-06-26T05:09:48Z</time>
            </trkpt>
            <trkpt lon="100.990529" lat="12.915086">
                <ele>76.560000</ele>
                <time>2016-06-26T05:10:36Z</time>
            </trkpt>
            <trkpt lon="100.991094" lat="12.914423">
                <ele>73.680000</ele>
                <time>2016-06-26T05:10:50Z</time>
            </trkpt>
            <trkpt lon="100.991357" lat="12.913915">
                <ele>75.600000</ele>
                <time>2016-06-26T05:11:04Z</time>
            </trkpt>
            <trkpt lon="100.990920" lat="12.913282">
                <ele>76.560000</ele>
                <time>2016-06-26T05:11:25Z</time>
            </trkpt>
            <trkpt lon="100.989630" lat="12.911560">
                <ele>74.640000</ele>
                <time>2016-06-26T05:12:23Z</time>
            </trkpt>
            <trkpt lon="100.989361" lat="12.911177">
                <ele>72.720000</ele>
                <time>2016-06-26T05:12:35Z</time>
            </trkpt>
            <trkpt lon="100.988657" lat="12.909798">
                <ele>75.120000</ele>
                <time>2016-06-26T05:13:20Z</time>
            </trkpt>
            <trkpt lon="100.988168" lat="12.908993">
                <ele>78.970000</ele>
                <time>2016-06-26T05:13:56Z</time>
            </trkpt>
            <trkpt lon="100.987457" lat="12.908037">
                <ele>75.600000</ele>
                <time>2016-06-26T05:14:28Z</time>
            </trkpt>
            <trkpt lon="100.986575" lat="12.907349">
                <ele>72.240000</ele>
                <time>2016-06-26T05:14:58Z</time>
            </trkpt>
            <trkpt lon="100.985471" lat="12.906649">
                <ele>75.120000</ele>
                <time>2016-06-26T05:15:40Z</time>
            </trkpt>
            <trkpt lon="100.985461" lat="12.906633">
                <ele>74.640000</ele>
                <time>2016-06-26T05:15:41Z</time>
            </trkpt>
            <trkpt lon="100.985221" lat="12.906284">
                <ele>78.000000</ele>
                <time>2016-06-26T05:15:56Z</time>
            </trkpt>
            <trkpt lon="100.984829" lat="12.905369">
                <ele>78.480000</ele>
                <time>2016-06-26T05:16:29Z</time>
            </trkpt>
            <trkpt lon="100.984468" lat="12.903719">
                <ele>78.970000</ele>
                <time>2016-06-26T05:17:35Z</time>
            </trkpt>
            <trkpt lon="100.984228" lat="12.903355">
                <ele>80.410000</ele>
                <time>2016-06-26T05:17:49Z</time>
            </trkpt>
            <trkpt lon="100.983244" lat="12.902879">
                <ele>83.770000</ele>
                <time>2016-06-26T05:18:19Z</time>
            </trkpt>
            <trkpt lon="100.982877" lat="12.902995">
                <ele>82.810000</ele>
                <time>2016-06-26T05:18:32Z</time>
            </trkpt>
            <trkpt lon="100.982602" lat="12.903582">
                <ele>90.980000</ele>
                <time>2016-06-26T05:18:56Z</time>
            </trkpt>
            <trkpt lon="100.982251" lat="12.903712">
                <ele>90.980000</ele>
                <time>2016-06-26T05:19:08Z</time>
            </trkpt>
            <trkpt lon="100.981479" lat="12.903650">
                <ele>89.060000</ele>
                <time>2016-06-26T05:19:31Z</time>
            </trkpt>
            <trkpt lon="100.980857" lat="12.903619">
                <ele>84.250000</ele>
                <time>2016-06-26T05:19:50Z</time>
            </trkpt>
            <trkpt lon="100.980322" lat="12.903577">
                <ele>80.890000</ele>
                <time>2016-06-26T05:20:07Z</time>
            </trkpt>
            <trkpt lon="100.976225" lat="12.902312">
                <ele>64.070000</ele>
                <time>2016-06-26T05:21:39Z</time>
            </trkpt>
            <trkpt lon="100.975436" lat="12.902198">
                <ele>62.620000</ele>
                <time>2016-06-26T05:21:55Z</time>
            </trkpt>
            <trkpt lon="100.974699" lat="12.902352">
                <ele>61.180000</ele>
                <time>2016-06-26T05:22:11Z</time>
            </trkpt>
            <trkpt lon="100.974090" lat="12.902222">
                <ele>60.700000</ele>
                <time>2016-06-26T05:22:25Z</time>
            </trkpt>
            <trkpt lon="100.973880" lat="12.902744">
                <ele>62.620000</ele>
                <time>2016-06-26T05:23:12Z</time>
            </trkpt>
            <trkpt lon="100.973648" lat="12.902775">
                <ele>64.070000</ele>
                <time>2016-06-26T05:23:22Z</time>
            </trkpt>
            <trkpt lon="100.973353" lat="12.902916">
                <ele>65.030000</ele>
                <time>2016-06-26T05:23:34Z</time>
            </trkpt>
            <trkpt lon="100.972903" lat="12.903368">
                <ele>68.390000</ele>
                <time>2016-06-26T05:24:00Z</time>
            </trkpt>
            <trkpt lon="100.972791" lat="12.903815">
                <ele>69.830000</ele>
                <time>2016-06-26T05:24:17Z</time>
            </trkpt>
            <trkpt lon="100.972916" lat="12.904497">
                <ele>71.760000</ele>
                <time>2016-06-26T05:24:42Z</time>
            </trkpt>
            <trkpt lon="100.973742" lat="12.904642">
                <ele>74.640000</ele>
                <time>2016-06-26T05:25:08Z</time>
            </trkpt>
            <trkpt lon="100.973983" lat="12.904840">
                <ele>76.080000</ele>
                <time>2016-06-26T05:25:17Z</time>
            </trkpt>
            <trkpt lon="100.974374" lat="12.906144">
                <ele>76.560000</ele>
                <time>2016-06-26T05:25:53Z</time>
            </trkpt>
            <trkpt lon="100.975023" lat="12.905748">
                <ele>74.640000</ele>
                <time>2016-06-26T05:26:37Z</time>
            </trkpt>
            <trkpt lon="100.975054" lat="12.905619">
                <ele>78.970000</ele>
                <time>2016-06-26T05:28:06Z</time>
            </trkpt>
            <trkpt lon="100.975049" lat="12.905602">
                <ele>78.000000</ele>
                <time>2016-06-26T05:29:42Z</time>
            </trkpt>
        </trkseg>
    </trk>
</gpx>